Terminal Aerodrome Forecast
Issued by NWS

Home | Current Version | Previous Version | Text Only | Print | Product List | Glossary On
Versions: 1 2 3 4 5 6 7 8 9 10 11 12 13 14
930
FTUS43 KDLH 261134
TAFBRD
TAF
KBRD 261134Z 2612/2712 00000KT P6SM SCT100
     FM261400 34012G20KT P6SM VCSH SCT015 BKN050
     FM261600 34015G24KT P6SM SCT025 BKN050
     FM261900 33013G22KT P6SM SCT025
     FM270200 VRB04KT P6SM SCT030 BKN120=

USA.gov is the U.S. government's official web portal to all federal, state and local government web resources and services.